| time (UTC) | temp C | wind direction | speed KPH | gust KPH | rain 1hr cm | rain 24hr cm | rain mn cm | humidity % | barometer mb |
| 20260508053330 | 10 | 306 | 1.6 | 4.8 | 0.00 | 0.05 | 0.00 | 93 | 1010.3 |
| 20260508050329 | 10 | 339 | 1.6 | 6.4 | 0.00 | 0.05 | 0.00 | 98 | 1010.6 |
| 20260508043329 | 9 | 345 | 1.6 | 6.4 | 0.00 | 0.05 | 0.00 | 99 | 1010.4 |
| 20260508040329 | 9 | 347 | 4.8 | 9.7 | 0.00 | 0.05 | 0.00 | 97 | 1010.7 |
| 20260508033328 | 9 | 331 | 4.8 | 8.0 | 0.00 | 0.05 | 0.00 | 95 | 1011.0 |
| 20260508030330 | 10 | 326 | 3.2 | 9.7 | 0.00 | 0.05 | 0.00 | 90 | 1011.0 |
| 20260508023329 | 10 | 307 | 4.8 | 6.4 | 0.00 | 0.05 | 0.00 | 89 | 1011.3 |
| 20260508020328 | 10 | 321 | 3.2 | 8.0 | 0.00 | 0.05 | 0.00 | 89 | 1011.6 |
| 20260508013330 | 10 | 329 | 4.8 | 8.0 | 0.00 | 0.05 | 0.00 | 90 | 1011.7 |
| 20260508010329 | 10 | 314 | 4.8 | 9.7 | 0.00 | 0.05 | 0.00 | 90 | 1011.9 |
| 20260508003329 | 10 | 318 | 3.2 | 8.0 | 0.00 | 0.05 | 0.00 | 91 | 1011.9 |
| 20260508000329 | 10 | 318 | 3.2 | 8.0 | 0.00 | 0.05 | 0.00 | 92 | 1012.1 |
| 20260507233329 | 11 | 309 | 1.6 | 6.4 | 0.00 | 0.05 | 0.00 | 92 | 1011.9 |
| 20260507230328 | 11 | 324 | 3.2 | 4.8 | 0.00 | 0.05 | 0.00 | 91 | 1011.8 |
| 20260507223329 | 11 | 310 | 1.6 | 6.4 | 0.00 | 0.05 | 0.00 | 90 | 1011.8 |
| 20260507220329 | 11 | 319 | 1.6 | 6.4 | 0.00 | 0.05 | 0.00 | 90 | 1012.1 |
| 20260507213328 | 11 | 337 | 6.4 | 11.3 | 0.00 | 0.05 | 0.05 | 92 | 1012.5 |
| 20260507210330 | 11 | 298 | 3.2 | 6.4 | 0.03 | 0.05 | 0.05 | 94 | 1012.8 |
| 20260507203330 | 12 | 330 | 3.2 | 8.0 | 0.05 | 0.05 | 0.05 | 91 | 1013.0 |
| 20260507200330 | 12 | 276 | 0.0 | 3.2 | 0.03 | 0.03 | 0.03 | 87 | 1013.5 |
| 20260507193329 | 12 | 302 | 0.0 | 3.2 | 0.00 | 0.00 | 0.00 | 85 | 1013.3 |
| 20260507190329 | 13 | 329 | 1.6 | 8.0 | 0.00 | 0.00 | 0.00 | 85 | 1013.3 |
| 20260507183329 | 13 | 314 | 1.6 | 6.4 | 0.00 | 0.00 | 0.00 | 83 | 1013.6 |
| 20260507180330 | 14 | 330 | 1.6 | 9.7 | 0.00 | 0.00 | 0.00 | 77 | 1014.1 |
| 20260507173330 | 15 | 330 | 3.2 | 11.3 | 0.00 | 0.00 | 0.00 | 72 | 1014.9 |
| 20260507170329 | 16 | 317 | 3.2 | 9.7 | 0.00 | 0.00 | 0.00 | 69 | 1015.5 |
| 20260507163330 | 16 | 344 | 8.0 | 14.5 | 0.00 | 0.00 | 0.00 | 67 | 1016.0 |
| 20260507160328 | 17 | 318 | 6.4 | 14.5 | 0.00 | 0.00 | 0.00 | 64 | 1015.9 |
| 20260507153329 | 17 | 332 | 8.0 | 12.9 | 0.00 | 0.00 | 0.00 | 62 | 1016.1 |
| 20260507150328 | 18 | 332 | 6.4 | 14.5 | 0.00 | 0.00 | 0.00 | 62 | 1016.2 |
| 20260507143328 | 18 | 302 | 3.2 | 11.3 | 0.00 | 0.00 | 0.00 | 63 | 1015.7 |
| 20260507140330 | 17 | 314 | 4.8 | 12.9 | 0.00 | 0.00 | 0.00 | 66 | 1015.8 |
| 20260507133329 | 16 | 282 | 6.4 | 11.3 | 0.00 | 0.00 | 0.00 | 69 | 1015.9 |
| 20260507130329 | 17 | 286 | 4.8 | 17.7 | 0.00 | 0.00 | 0.00 | 65 | 1015.8 |
| 20260507123328 | 17 | 320 | 3.2 | 14.5 | 0.00 | 0.00 | 0.00 | 66 | 1016.2 |
| 20260507120330 | 17 | 328 | 14.5 | 19.3 | 0.00 | 0.00 | 0.00 | 67 | 1016.2 |
| 20260507113328 | 17 | 293 | 9.7 | 20.9 | 0.00 | 0.00 | 0.00 | 68 | 1016.4 |
| 20260507110329 | 17 | 299 | 4.8 | 14.5 | 0.00 | 0.00 | 0.00 | 69 | 1016.7 |
| 20260507103329 | 20 | 320 | 4.8 | 25.7 | 0.00 | 0.00 | 0.00 | 62 | 1017.2 |
| 20260507100330 | 21 | 286 | 6.4 | 11.3 | 0.00 | 0.00 | 0.00 | 58 | 1017.9 |
| 20260507093328 | 20 | 323 | 9.7 | 14.5 | 0.00 | 0.00 | 0.00 | 60 | 1018.0 |
| 20260507090329 | 22 | 266 | 4.8 | 11.3 | 0.00 | 0.00 | 0.00 | 53 | 1018.5 |
| 20260507083328 | 21 | 240 | 4.8 | 19.3 | 0.00 | 0.00 | 0.00 | 55 | 1018.6 |
| 20260507080329 | 20 | 265 | 0.0 | 9.7 | 0.00 | 0.00 | 0.00 | 60 | 1018.7 |
| 20260507073329 | 20 | 233 | 6.4 | 9.7 | 0.00 | 0.00 | 0.00 | 61 | 1018.9 |
| 20260507070329 | 20 | 218 | 8.0 | 14.5 | 0.00 | 0.00 | 0.00 | 58 | 1019.3 |
| 20260507063329 | 20 | 197 | 6.4 | 11.3 | 0.00 | 0.00 | 0.00 | 59 | 1019.8 |
| 20260507060328 | 18 | 201 | 4.8 | 9.7 | 0.00 | 0.00 | 0.00 | 62 | 1019.8 |